Time;durP1;ratioP1;P1;durP2;ratioP2;P2;SDS_P1;SDS_P2;PMS_P1;PMS_P2;Temp;Humidity;BMP_temperature;BMP_pressure;BME280_temperature;BME280_humidity;BME280_pressure;Samples;Min_cycle;Max_cycle;Signal;HPM_P1;HPM_P2
2022/12/19 00:03:15;;;;;;;83.82;33.60;;;;;;;1.28;100.00;101148.88;8343823;28;20091;-49
2022/12/19 00:07:16;;;;;;;85.07;33.97;;;;;;;1.38;100.00;101123.56;8343442;28;20547;-48
2022/12/19 00:11:18;;;;;;;82.97;31.42;;;;;;;1.47;100.00;101120.47;8343220;28;20499;-50
2022/12/19 00:15:19;;;;;;;85.07;33.38;;;;;;;1.50;100.00;101101.69;8343103;28;20046;-48
2022/12/19 00:19:20;;;;;;;85.57;33.75;;;;;;;1.60;100.00;101113.66;8344054;28;20048;-48
2022/12/19 00:23:20;;;;;;;86.38;34.22;;;;;;;1.66;100.00;101094.72;8341172;28;20079;-50
2022/12/19 00:27:21;;;;;;;79.80;31.85;;;;;;;1.70;100.00;101093.66;8342335;28;20398;-48
2022/12/19 00:31:22;;;;;;;73.63;30.23;;;;;;;1.75;100.00;101107.63;8342876;28;20098;-49
2022/12/19 00:35:22;;;;;;;78.60;31.05;;;;;;;1.78;100.00;101112.81;8342667;28;20494;-49
2022/12/19 00:39:23;;;;;;;77.95;30.13;;;;;;;1.83;100.00;101094.81;8343051;28;20548;-48
2022/12/19 00:43:23;;;;;;;83.82;30.67;;;;;;;1.81;100.00;101088.69;8341169;28;20045;-48
2022/12/19 00:47:24;;;;;;;79.00;31.25;;;;;;;1.90;100.00;101069.59;8342038;28;20029;-48
2022/12/19 00:51:27;;;;;;;72.35;30.35;;;;;;;2.04;100.00;101061.78;8339039;28;20056;-50
2022/12/19 00:55:28;;;;;;;76.57;30.70;;;;;;;2.16;100.00;101060.34;8338932;28;20052;-48
2022/12/19 00:59:28;;;;;;;74.07;30.60;;;;;;;2.23;100.00;101049.31;8342011;28;20068;-49
2022/12/19 01:03:30;;;;;;;81.38;31.92;;;;;;;2.31;100.00;101048.94;8342057;28;20052;-49
2022/12/19 01:07:31;;;;;;;68.57;29.75;;;;;;;2.32;100.00;101059.53;8340574;28;20033;-49
2022/12/19 01:12:50;;;;;;;71.03;30.67;;;;;;;2.26;100.00;101058.97;8341313;28;20086;-53
2022/12/19 01:15:55;;;;;;;73.35;29.60;;;;;;;2.22;100.00;101054.72;8341300;28;20427;-51
2022/12/19 01:19:56;;;;;;;73.65;29.40;;;;;;;2.27;100.00;101042.88;8342901;28;20033;-49
2022/12/19 01:23:57;;;;;;;72.65;29.80;;;;;;;2.28;100.00;101055.25;8341207;28;20503;-51
2022/12/19 01:27:57;;;;;;;76.50;32.95;;;;;;;2.25;100.00;101050.09;8340844;28;20495;-49
2022/12/19 01:31:58;;;;;;;81.75;32.78;;;;;;;2.27;100.00;101056.22;8340887;28;20128;-51
2022/12/19 01:36:06;;;;;;;74.35;31.90;;;;;;;2.29;100.00;101057.03;8340750;28;20041;-49
2022/12/19 01:40:08;;;;;;;74.47;30.50;;;;;;;2.30;100.00;101037.41;8340875;28;20060;-49
2022/12/19 01:44:11;;;;;;;;;;;;;;;2.31;100.00;101055.13;8341435;28;20112;-49
2022/12/19 01:48:17;;;;;;;78.93;31.23;;;;;;;2.28;100.00;101052.59;8340364;28;19923;-48
2022/12/19 01:52:18;;;;;;;84.00;33.20;;;;;;;2.26;100.00;101049.16;8339994;28;20065;-49
2022/12/19 01:56:28;;;;;;;71.05;29.83;;;;;;;2.24;100.00;101029.69;8340293;28;20402;-49
2022/12/19 02:00:30;;;;;;;81.55;32.53;;;;;;;2.22;100.00;101022.72;8340396;28;20044;-48
2022/12/19 02:04:35;;;;;;;77.65;32.05;;;;;;;2.27;100.00;101021.53;8339542;28;20048;-48
2022/12/19 02:08:36;;;;;;;76.07;31.88;;;;;;;2.31;100.00;101023.09;8339739;28;20041;-48
2022/12/19 02:12:40;;;;;;;78.38;31.50;;;;;;;2.32;100.00;101011.53;8340047;28;20053;-50
2022/12/19 02:16:57;;;;;;;79.03;32.33;;;;;;;2.36;100.00;100994.41;8339407;28;20086;-49
2022/12/19 02:21:38;;;;;;;79.25;31.77;;;;;;;2.35;100.00;100974.00;8337884;28;20051;-49
2022/12/19 02:26:19;;;;;;;75.43;31.60;;;;;;;2.34;100.00;100969.59;8338618;28;20048;-48
2022/12/19 02:30:45;;;;;;;78.43;32.67;;;;;;;2.28;100.00;100979.75;8339974;28;20033;-49
2022/12/19 02:35:12;;;;;;;75.97;31.35;;;;;;;2.18;100.00;100958.00;8338882;28;20160;-49
2022/12/19 02:39:22;;;;;;;86.07;31.33;;;;;;;2.22;100.00;100942.72;8342968;28;20071;-48
2022/12/19 02:43:27;;;;;;;77.85;32.72;;;;;;;2.28;100.00;100953.91;8355592;28;20033;-48
2022/12/19 02:47:30;;;;;;;81.22;32.22;;;;;;;2.32;100.00;100939.50;8354937;28;20456;-50
2022/12/19 02:51:32;;;;;;;85.50;33.65;;;;;;;2.35;100.00;100939.31;8354691;28;20036;-52
2022/12/19 02:55:41;;;;;;;76.32;31.27;;;;;;;2.44;100.00;100932.66;8351998;28;20043;-48
2022/12/19 03:00:13;;;;;;;80.38;31.23;;;;;;;2.44;100.00;100925.50;8354858;28;20155;-49
2022/12/19 03:04:26;;;;;;;79.25;31.98;;;;;;;2.50;100.00;100927.84;8338284;28;20033;-50
2022/12/19 03:08:54;;;;;;;76.82;29.55;;;;;;;2.50;100.00;100911.84;8347148;28;20550;-48
2022/12/19 03:13:00;;;;;;;78.57;32.80;;;;;;;2.52;100.00;100914.44;8356750;28;20502;-48
2022/12/19 03:17:04;;;;;;;79.70;31.95;;;;;;;2.53;100.00;100903.66;8388562;28;20123;-48
2022/12/19 03:21:16;;;;;;;75.20;29.00;;;;;;;2.69;100.00;100891.25;8388049;28;20039;-51
2022/12/19 03:25:19;;;;;;;74.95;31.23;;;;;;;2.76;100.00;100892.66;8330765;28;20057;-48
2022/12/19 03:29:42;;;;;;;70.28;28.13;;;;;;;2.72;100.00;100899.09;8323045;28;20264;-48
2022/12/19 03:33:45;;;;;;;74.28;30.40;;;;;;;2.72;100.00;100903.56;8333572;28;20045;-48
2022/12/19 03:37:47;;;;;;;75.07;30.45;;;;;;;2.73;100.00;100889.28;8337825;28;20092;-48
2022/12/19 03:43:07;;;;;;;74.95;29.88;;;;;;;2.80;100.00;100893.34;8337674;28;20037;-48
2022/12/19 03:46:18;;;;;;;79.80;29.83;;;;;;;2.87;100.00;100887.56;8337112;28;20050;-50
2022/12/19 03:50:22;;;;;;;70.28;28.73;;;;;;;2.84;100.00;100874.38;8337207;28;20033;-48
2022/12/19 03:54:25;;;;;;;;;;;;;;;2.89;100.00;100869.69;8318163;28;20477;-48
2022/12/19 03:58:31;;;;;;;73.60;31.30;;;;;;;2.91;100.00;100870.47;8330486;28;19916;-50
2022/12/19 04:02:36;;;;;;;74.57;28.83;;;;;;;2.95;100.00;100864.00;8337778;28;20041;-49
2022/12/19 04:06:41;;;;;;;72.20;29.33;;;;;;;3.04;100.00;100870.63;8336699;28;20079;-48
2022/12/19 04:10:48;;;;;;;73.90;29.60;;;;;;;3.06;100.00;100864.28;8343626;28;20041;-49
2022/12/19 04:14:49;;;;;;;75.28;31.08;;;;;;;3.12;100.00;100863.94;8352990;28;20037;-49
2022/12/19 04:18:57;;;;;;;77.55;30.90;;;;;;;3.09;100.00;100877.47;8353586;28;20115;-49
2022/12/19 04:23:20;;;;;;;74.88;30.42;;;;;;;3.15;100.00;100884.28;8347889;28;20033;-50
2022/12/19 04:27:21;;;;;;;79.68;32.40;;;;;;;3.21;100.00;100884.81;8305287;28;20066;-49
2022/12/19 04:31:22;;;;;;;75.20;29.98;;;;;;;3.32;100.00;100879.69;8335376;28;20124;-51
2022/12/19 04:35:23;;;;;;;76.85;31.80;;;;;;;3.38;100.00;100882.03;8336938;28;20041;-50
2022/12/19 04:39:24;;;;;;;78.47;29.70;;;;;;;3.44;100.00;100881.69;8337181;28;20530;-49
2022/12/19 04:43:24;;;;;;;86.47;33.72;;;;;;;3.49;100.00;100879.63;8340411;28;20029;-50
2022/12/19 04:47:25;;;;;;;68.50;28.20;;;;;;;3.61;100.00;100867.34;8341261;28;20446;-50
2022/12/19 04:51:25;;;;;;;73.78;30.20;;;;;;;3.74;100.00;100866.56;8333271;28;20379;-50
2022/12/19 04:55:26;;;;;;;71.50;28.50;;;;;;;3.87;100.00;100862.22;8310679;28;20558;-50
2022/12/19 04:59:26;;;;;;;71.35;28.73;;;;;;;3.99;100.00;100869.53;8314051;28;20041;-50
2022/12/19 05:03:27;;;;;;;61.20;26.50;;;;;;;4.23;100.00;100860.97;8316643;28;20049;-52
2022/12/19 05:07:27;;;;;;;62.15;26.38;;;;;;;4.43;100.00;100852.59;8341746;28;20041;-49
2022/12/19 05:11:28;;;;;;;61.95;26.38;;;;;;;4.52;100.00;100841.34;8337847;28;20104;-50
2022/12/19 05:15:28;;;;;;;65.68;23.27;;;;;;;4.63;100.00;100836.19;8324564;28;20068;-50
2022/12/19 05:19:30;;;;;;;49.45;21.92;;;;;;;4.70;100.00;100846.38;8340231;28;20134;-49
2022/12/19 05:23:31;;;;;;;54.03;23.23;;;;;;;4.80;100.00;100846.69;8335914;28;20041;-49
2022/12/19 05:27:31;;;;;;;55.53;24.73;;;;;;;4.75;100.00;100855.00;8335505;28;20037;-50
2022/12/19 05:31:31;;;;;;;58.53;24.17;;;;;;;4.64;100.00;100851.28;8350258;28;20045;-49
2022/12/19 05:35:33;;;;;;;54.70;22.92;;;;;;;4.67;100.00;100853.78;8357636;28;20174;-49
2022/12/19 05:39:34;;;;;;;57.22;24.90;;;;;;;4.50;100.00;100867.31;8352721;28;20590;-53
2022/12/19 05:43:35;;;;;;;55.00;24.38;;;;;;;4.32;100.00;100858.59;8354070;28;20288;-49
2022/12/19 05:47:36;;;;;;;70.57;26.73;;;;;;;4.18;100.00;100863.94;8340224;28;20631;-49
2022/12/19 05:51:37;;;;;;;70.22;25.85;;;;;;;4.25;100.00;100864.41;8323011;28;20641;-49
2022/12/19 05:55:37;;;;;;;70.22;26.70;;;;;;;4.34;100.00;100847.81;8320176;28;20053;-49
2022/12/19 05:59:38;;;;;;;63.20;26.10;;;;;;;4.40;100.00;100847.44;8344749;28;20439;-51
2022/12/19 06:03:38;;;;;;;61.22;25.00;;;;;;;4.48;100.00;100858.53;8330026;28;20042;-49
2022/12/19 06:07:39;;;;;;;65.72;27.33;;;;;;;4.58;100.00;100857.03;8350491;28;20044;-50
2022/12/19 06:11:39;;;;;;;59.03;25.20;;;;;;;4.63;100.00;100846.91;8348959;28;20664;-50
2022/12/19 06:15:40;;;;;;;60.13;23.27;;;;;;;4.75;100.00;100862.16;8355335;28;20469;-49
2022/12/19 06:19:40;;;;;;;62.90;23.50;;;;;;;4.92;100.00;100873.56;8355908;28;20061;-51
2022/12/19 06:23:42;;;;;;;48.33;19.88;;;;;;;5.07;100.00;100861.91;8339881;28;20187;-49
2022/12/19 06:27:43;;;;;;;46.08;20.63;;;;;;;5.28;100.00;100865.00;8311089;28;20032;-51
2022/12/19 06:31:43;;;;;;;43.22;19.55;;;;;;;5.51;100.00;100861.69;8339966;28;20064;-52
2022/12/19 06:35:44;;;;;;;38.30;16.08;;;;;;;5.66;100.00;100860.69;8333731;28;20524;-51
2022/12/19 06:39:45;;;;;;;33.60;15.57;;;;;;;5.83;100.00;100869.34;8327507;28;20056;-49
2022/12/19 06:43:45;;;;;;;29.92;13.90;;;;;;;6.00;100.00;100871.78;8327703;28;20450;-50
2022/12/19 06:47:47;;;;;;;24.88;11.20;;;;;;;6.26;100.00;100867.34;8337006;28;20037;-53
2022/12/19 06:51:47;;;;;;;19.98;10.23;;;;;;;6.65;100.00;100867.25;8332158;28;20535;-52
2022/12/19 06:55:50;;;;;;;21.05;12.23;;;;;;;6.78;100.00;100878.88;8336188;28;20493;-54
2022/12/19 06:59:50;;;;;;;21.40;11.77;;;;;;;6.82;100.00;100877.69;8340602;28;20037;-52
2022/12/19 07:03:51;;;;;;;15.90;10.13;;;;;;;6.88;100.00;100873.69;8313546;28;20049;-49
2022/12/19 07:07:51;;;;;;;16.27;10.10;;;;;;;6.95;100.00;100873.16;8332723;28;20037;-54
2022/12/19 07:11:52;;;;;;;17.52;9.95;;;;;;;7.03;100.00;100878.84;8338380;28;20042;-52
2022/12/19 07:15:55;;;;;;;18.30;10.55;;;;;;;7.07;100.00;100876.78;8326812;28;20132;-50
2022/12/19 07:19:57;;;;;;;19.15;10.75;;;;;;;6.94;100.00;100876.81;8319972;28;20034;-50
2022/12/19 07:23:59;;;;;;;18.35;10.25;;;;;;;6.88;100.00;100889.81;8325700;28;20033;-52
2022/12/19 07:28:00;;;;;;;22.00;11.98;;;;;;;6.87;100.00;100886.28;8323549;28;20144;-53
2022/12/19 07:32:00;;;;;;;23.75;11.70;;;;;;;6.80;100.00;100893.03;8353517;28;20037;-52
2022/12/19 07:36:01;;;;;;;19.15;11.60;;;;;;;6.83;100.00;100862.44;8354254;28;20029;-53
2022/12/19 07:40:02;;;;;;;26.67;13.05;;;;;;;6.79;100.00;100866.28;8354452;28;20395;-53
2022/12/19 07:44:04;;;;;;;21.88;11.70;;;;;;;6.87;100.00;100864.78;8347747;28;20046;-51
2022/12/19 07:48:05;;;;;;;16.48;9.82;;;;;;;7.15;100.00;100859.16;8337451;28;20115;-52
2022/12/19 07:52:07;;;;;;;15.80;9.43;;;;;;;7.37;100.00;100847.69;8324100;28;20037;-55
2022/12/19 07:56:07;;;;;;;14.68;8.43;;;;;;;7.73;100.00;100843.16;8337516;28;20470;-52
2022/12/19 08:00:08;;;;;;;15.27;7.90;;;;;;;7.92;100.00;100846.16;8337537;28;20045;-53
2022/12/19 08:04:24;;;;;;;11.60;7.38;;;;;;;8.07;100.00;100845.00;8364583;27;20837;-51
2022/12/19 08:08:26;;;;;;;12.82;8.07;;;;;;;8.20;100.00;100861.06;8347707;28;20041;-52
2022/12/19 08:12:27;;;;;;;11.77;7.28;;;;;;;8.30;100.00;100858.56;8325517;28;20030;-52
2022/12/19 08:16:27;;;;;;;12.00;7.20;;;;;;;8.46;100.00;100869.88;8346015;28;20045;-52
2022/12/19 08:20:28;;;;;;;10.75;6.93;;;;;;;8.55;100.00;100877.25;8348079;28;20485;-49
2022/12/19 08:24:29;;;;;;;8.15;5.93;;;;;;;8.74;100.00;100888.31;8327460;28;20084;-49
2022/12/19 08:28:32;;;;;;;14.13;6.28;;;;;;;8.68;100.00;100883.38;8328858;28;20164;-52
2022/12/19 08:32:32;;;;;;;9.73;6.68;;;;;;;8.67;100.00;100879.00;8349979;28;20033;-51
2022/12/19 08:36:33;;;;;;;8.85;6.03;;;;;;;8.60;100.00;100893.94;8349382;28;20060;-51
2022/12/19 08:40:34;;;;;;;10.98;6.72;;;;;;;8.56;100.00;100889.72;8344849;28;20041;-49
2022/12/19 08:44:34;;;;;;;15.00;6.97;;;;;;;8.60;100.00;100886.69;8349094;28;20037;-52
2022/12/19 08:48:35;;;;;;;12.68;6.82;;;;;;;8.78;100.00;100895.19;8349468;28;20156;-52
2022/12/19 08:52:36;;;;;;;12.65;7.00;;;;;;;8.76;100.00;100894.44;8348648;28;20145;-49
2022/12/19 08:56:37;;;;;;;12.07;7.43;;;;;;;8.68;100.00;100876.19;8348122;28;20039;-50
2022/12/19 09:00:38;;;;;;;14.07;7.88;;;;;;;8.57;100.00;100864.53;8346902;28;20041;-49
2022/12/19 09:04:38;;;;;;;17.58;9.00;;;;;;;8.39;100.00;100871.34;8347795;28;20041;-50
2022/12/19 09:08:39;;;;;;;19.13;9.38;;;;;;;8.14;100.00;100858.00;8336338;28;20037;-52
2022/12/19 09:12:40;;;;;;;16.50;8.93;;;;;;;7.99;100.00;100862.69;8339594;28;20422;-50
2022/12/19 09:16:40;;;;;;;17.30;9.63;;;;;;;7.96;100.00;100855.72;8316719;28;20120;-52
2022/12/19 09:20:41;;;;;;;16.35;9.70;;;;;;;7.97;100.00;100860.13;8316740;28;20053;-51
2022/12/19 09:24:41;;;;;;;25.15;11.18;;;;;;;7.99;100.00;100868.94;8307347;28;20077;-52
2022/12/19 09:28:42;;;;;;;21.92;10.00;;;;;;;8.06;100.00;100859.41;8308392;28;20057;-49
2022/12/19 09:32:42;;;;;;;16.65;9.20;;;;;;;8.23;100.00;100849.25;8309917;28;20065;-49
2022/12/19 09:36:43;;;;;;;16.92;9.48;;;;;;;8.41;100.00;100847.81;8314571;28;20041;-52
2022/12/19 09:40:58;;;;;;;17.35;8.55;;;;;;;8.53;100.00;100846.84;8306278;28;20046;-52
2022/12/19 09:45:25;;;;;;;13.27;7.80;;;;;;;8.75;100.00;100853.13;8276118;28;20034;-49
2022/12/19 09:49:35;;;;;;;12.38;6.95;;;;;;;9.01;100.00;100848.38;8312452;28;20033;-49
2022/12/19 09:53:51;;;;;;;17.30;7.22;;;;;;;9.11;100.00;100858.31;8295451;28;20038;-51
2022/12/19 09:58:06;;;;;;;12.77;6.88;;;;;;;9.09;100.00;100857.56;8305087;28;20059;-51
2022/12/19 10:02:40;;;;;;;15.13;7.70;;;;;;;9.16;100.00;100871.44;8313071;28;20049;-51
2022/12/19 10:06:41;;;;;;;13.32;7.35;;;;;;;9.08;100.00;100873.88;8310789;28;21085;-49
2022/12/19 10:11:14;;;;;;;13.60;7.35;;;;;;;9.01;100.00;100861.88;8324721;28;20052;-49
2022/12/19 10:15:28;;;;;;;12.52;7.05;;;;;;;9.03;100.00;100835.66;8331509;28;20041;-48
2022/12/19 10:20:08;;;;;;;14.57;8.10;;;;;;;8.97;100.00;100830.75;8308688;28;20045;-48
2022/12/19 10:29:06;;;;;;;14.10;7.53;;;;;;;8.99;100.00;100837.72;8388819;27;20385;-52
2022/12/19 10:33:25;;;;;;;24.40;12.27;;;;;;;7.97;100.00;100840.44;8399992;27;20395;-48
2022/12/19 10:37:28;;;;;;;30.33;13.73;;;;;;;7.45;100.00;100843.47;8368794;28;20520;-52
2022/12/19 10:41:31;;;;;;;33.58;14.63;;;;;;;7.43;100.00;100836.47;8391688;27;20041;-52
2022/12/19 10:45:37;;;;;;;30.02;14.85;;;;;;;7.67;100.00;100832.84;8389647;27;20060;-49
2022/12/19 10:49:37;;;;;;;25.40;13.95;;;;;;;7.86;100.00;100841.25;8391669;27;20040;-51
2022/12/19 10:53:38;;;;;;;26.42;14.10;;;;;;;8.17;100.00;100841.59;8396766;27;20032;-50
2022/12/19 10:57:39;;;;;;;24.13;12.10;;;;;;;8.43;100.00;100840.47;8397182;27;20494;-51
2022/12/19 11:01:39;;;;;;;25.77;12.82;;;;;;;8.63;100.00;100850.56;8399318;27;20060;-50
2022/12/19 11:05:47;;;;;;;21.15;10.18;;;;;;;8.81;100.00;100846.44;8398013;28;20201;-53
2022/12/19 11:09:47;;;;;;;13.80;7.90;;;;;;;9.20;100.00;100843.22;8393018;27;20035;-53
2022/12/19 11:13:48;;;;;;;12.13;7.13;;;;;;;9.25;100.00;100836.50;8399006;27;20036;-51
2022/12/19 11:17:49;;;;;;;11.82;6.32;;;;;;;9.51;99.02;100837.03;8394787;27;20453;-53
2022/12/19 11:21:49;;;;;;;12.77;5.90;;;;;;;9.57;97.92;100839.22;8399642;27;20129;-51
2022/12/19 11:25:57;;;;;;;13.00;6.47;;;;;;;9.68;96.32;100834.69;8372837;27;20040;-53
2022/12/19 11:29:59;;;;;;;10.23;5.80;;;;;;;9.67;96.56;100835.66;8382798;27;20035;-51
2022/12/19 11:34:04;;;;;;;12.38;6.32;;;;;;;9.82;96.01;100838.91;8378644;28;20662;-49
2022/12/19 11:38:08;;;;;;;12.93;6.82;;;;;;;9.86;95.71;100848.47;8353591;28;20654;-53
2022/12/19 11:42:22;;;;;;;17.52;9.38;;;;;;;9.30;99.20;100855.84;8342612;28;20056;-51
2022/12/19 11:46:35;;;;;;;24.85;11.55;;;;;;;9.02;100.00;100866.28;8341074;28;20479;-49
2022/12/19 11:50:55;;;;;;;24.05;12.38;;;;;;;8.74;100.00;100856.81;8347150;28;20527;-51
2022/12/19 11:55:03;;;;;;;28.70;14.00;;;;;;;8.44;100.00;100836.78;8413264;28;20409;-52
2022/12/19 11:59:15;;;;;;;22.45;11.52;;;;;;;8.37;100.00;100836.44;8355291;28;20114;-51
2022/12/19 12:03:55;;;;;;;24.00;12.38;;;;;;;8.52;100.00;100828.97;8345182;28;20087;-53
2022/12/19 12:12:42;;;;;;;20.15;10.50;;;;;;;8.63;100.00;100810.16;8398942;27;20401;-52
2022/12/19 12:17:10;;;;;;;25.25;12.90;;;;;;;8.56;100.00;100808.88;8353773;28;20049;-49
2022/12/19 12:21:36;;;;;;;24.77;13.63;;;;;;;8.52;100.00;100799.34;8436138;27;20051;-49
2022/12/19 12:25:59;;;;;;;27.73;13.75;;;;;;;8.56;100.00;100817.84;8396076;27;20069;-50
2022/12/19 12:38:56;;;;;;;23.10;12.13;;;;;;;8.54;100.00;100789.31;8319232;28;20381;-49
2022/12/19 12:43:37;;;;;;;21.00;11.80;;;;;;;8.64;100.00;100795.69;8313240;28;20470;-48
2022/12/19 12:47:37;;;;;;;21.00;11.95;;;;;;;8.71;99.27;100789.69;8313471;28;20033;-49
2022/12/19 12:51:38;;;;;;;19.60;10.77;;;;;;;8.91;96.66;100797.00;8313665;28;20044;-49
2022/12/19 12:55:41;;;;;;;20.85;10.85;;;;;;;9.02;96.25;100790.75;8313368;28;20034;-53
2022/12/19 12:59:45;;;;;;;20.48;11.02;;;;;;;8.98;95.69;100789.31;8316282;28;20060;-49
2022/12/19 13:08:44;;;;;;;23.52;11.95;;;;;;;8.65;98.66;100770.44;8416471;27;20399;-50
2022/12/19 13:12:59;;;;;;;24.40;13.35;;;;;;;8.56;99.43;100782.81;8416169;28;20524;-52
2022/12/19 13:17:03;;;;;;;26.23;12.98;;;;;;;8.62;99.23;100797.63;8414750;28;20033;-49
2022/12/19 13:21:07;;;;;;;25.63;13.52;;;;;;;8.63;98.17;100793.97;8414836;28;20051;-49
2022/12/19 13:30:13;;;;;;;22.23;11.43;;;;;;;8.83;97.36;100785.13;8303486;27;20393;-51
2022/12/19 13:34:17;;;;;;;22.52;12.25;;;;;;;8.83;97.56;100791.41;8310185;28;20048;-50
2022/12/19 13:38:22;;;;;;;18.60;9.97;;;;;;;8.83;97.01;100774.34;8314413;28;20046;-49
2022/12/19 13:43:58;;;;;;;21.20;10.98;;;;;;;8.78;98.28;100771.19;8313935;28;20479;-50
2022/12/19 13:46:46;;;;;;;20.27;10.50;;;;;;;8.78;98.00;100776.59;8314964;28;20461;-51
2022/12/19 13:50:48;;;;;;;15.70;9.98;;;;;;;8.93;97.45;100781.59;8316257;28;20111;-50
2022/12/19 13:54:50;;;;;;;15.68;8.73;;;;;;;8.76;98.75;100759.66;8295695;28;20045;-49
2022/12/19 13:58:56;;;;;;;11.48;7.15;;;;;;;8.80;99.33;100769.22;8282895;28;20034;-50
2022/12/19 14:02:58;;;;;;;9.20;6.38;;;;;;;9.02;97.08;100769.19;8283665;28;20042;-50
2022/12/19 14:07:02;;;;;;;11.02;6.28;;;;;;;9.05;96.16;100758.16;8278333;28;20133;-50
2022/12/19 14:11:06;;;;;;;14.48;6.15;;;;;;;9.00;95.68;100745.03;8282321;28;20189;-53
2022/12/19 14:15:32;;;;;;;10.82;5.30;;;;;;;9.11;95.29;100746.88;8296635;28;20042;-51
2022/12/19 14:19:38;;;;;;;10.23;5.60;;;;;;;9.16;94.30;100736.56;8282690;28;20034;-52
2022/12/19 14:23:39;;;;;;;10.30;5.35;;;;;;;9.31;94.15;100728.06;8272892;28;20050;-49
2022/12/19 14:27:50;;;;;;;11.18;5.38;;;;;;;9.37;93.40;100726.69;8254356;28;20539;-49
2022/12/19 14:31:53;;;;;;;7.15;5.47;;;;;;;9.37;93.99;100735.63;8282638;28;20058;-50
2022/12/19 14:35:54;;;;;;;10.43;4.97;;;;;;;9.46;93.25;100736.72;8282009;28;20045;-51
2022/12/19 14:39:59;;;;;;;7.47;4.03;;;;;;;9.40;93.36;100729.16;8267370;28;20503;-50
2022/12/19 14:44:00;;;;;;;12.18;5.28;;;;;;;9.35;93.41;100723.25;8260351;28;20038;-49
2022/12/19 14:48:01;;;;;;;15.75;8.25;;;;;;;9.25;94.30;100711.53;8260420;28;20168;-49
2022/12/19 14:52:04;;;;;;;6.10;3.53;;;;;;;9.20;94.13;100719.13;8259762;28;20126;-51
2022/12/19 14:56:16;;;;;;;5.70;3.60;;;;;;;9.16;94.30;100698.81;8260099;28;20399;-49
2022/12/19 15:00:28;;;;;;;7.13;3.67;;;;;;;9.10;94.39;100681.31;8259888;28;20042;-50
2022/12/19 15:04:48;;;;;;;7.55;3.78;;;;;;;9.11;94.97;100698.31;8259894;28;20066;-50
2022/12/19 15:08:49;;;;;;;5.75;3.83;;;;;;;9.29;93.80;100707.59;8227444;28;20038;-52
2022/12/19 15:17:21;;;;;;;9.10;4.88;;;;;;;9.28;94.44;100704.06;8416522;27;20970;-51
2022/12/19 15:21:21;;;;;;;10.87;4.43;;;;;;;9.35;94.31;100690.88;8411728;28;20058;-49
2022/12/19 15:25:23;;;;;;;7.85;4.35;;;;;;;9.26;94.70;100680.88;8381479;28;20759;-48
2022/12/19 15:29:25;;;;;;;8.57;5.13;;;;;;;8.69;96.95;100680.28;8394056;28;20048;-49
2022/12/19 15:33:25;;;;;;;10.52;5.60;;;;;;;8.59;98.05;100692.78;8411223;28;20082;-48
2022/12/19 15:37:25;;;;;;;11.10;5.97;;;;;;;8.55;97.68;100678.72;8412628;28;20044;-49
2022/12/19 15:41:26;;;;;;;14.77;7.10;;;;;;;8.51;98.02;100676.41;8412822;28;20111;-52
2022/12/19 15:45:29;;;;;;;14.48;6.85;;;;;;;8.49;98.29;100670.25;8412254;28;20414;-49
2022/12/19 15:49:31;;;;;;;12.50;7.68;;;;;;;8.53;97.44;100685.19;8412279;28;20452;-49
2022/12/19 15:53:32;;;;;;;15.23;9.05;;;;;;;8.36;98.24;100674.94;8401854;28;20048;-49
2022/12/19 15:57:37;;;;;;;18.48;10.65;;;;;;;8.20;98.50;100704.03;8382222;28;20600;-49
2022/12/19 16:01:37;;;;;;;18.08;8.98;;;;;;;8.01;100.00;100704.59;8411917;28;20044;-49
2022/12/19 16:05:38;;;;;;;14.70;8.32;;;;;;;8.01;100.00;100689.31;8426676;28;20090;-50
2022/12/19 16:09:39;;;;;;;16.67;7.95;;;;;;;8.12;100.00;100652.59;8377493;28;20537;-49
2022/12/19 16:13:41;;;;;;;20.23;11.00;;;;;;;8.02;100.00;100653.34;8377595;28;20169;-49
2022/12/19 16:17:42;;;;;;;15.63;8.85;;;;;;;7.94;100.00;100671.91;8376884;28;20045;-48
2022/12/19 16:21:43;;;;;;;16.95;8.75;;;;;;;8.03;100.00;100664.97;8396844;28;20051;-48
2022/12/19 16:25:49;;;;;;;14.68;9.15;;;;;;;7.97;100.00;100658.22;8380929;28;20630;-50
2022/12/19 16:29:51;;;;;;;20.25;9.50;;;;;;;7.82;100.00;100659.44;8381712;28;20044;-50
2022/12/19 16:33:52;;;;;;;22.05;10.38;;;;;;;7.72;100.00;100674.56;8382180;28;20036;-52
2022/12/19 16:37:53;;;;;;;22.17;11.60;;;;;;;7.68;100.00;100683.84;8374762;28;20559;-50
2022/12/19 16:41:53;;;;;;;20.20;10.57;;;;;;;7.64;100.00;100690.47;8370885;28;20036;-52
2022/12/19 16:45:54;;;;;;;18.88;10.20;;;;;;;7.72;100.00;100698.78;8370076;28;20490;-49
2022/12/19 16:49:54;;;;;;;15.32;8.60;;;;;;;7.94;100.00;100703.38;8386406;28;20112;-50
2022/12/19 16:53:58;;;;;;;14.75;8.55;;;;;;;8.11;100.00;100688.59;8385984;28;20037;-52
2022/12/19 16:57:59;;;;;;;10.90;7.10;;;;;;;8.28;99.90;100696.22;8373835;28;20037;-51
2022/12/19 17:02:00;;;;;;;15.43;6.93;;;;;;;8.59;98.52;100695.47;8350932;28;20036;-52
2022/12/19 17:06:02;;;;;;;9.88;5.40;;;;;;;9.12;96.08;100679.31;8351776;28;20071;-50
2022/12/19 17:10:02;;;;;;;11.70;5.63;;;;;;;9.37;94.22;100678.13;8380206;28;20244;-52
2022/12/19 17:14:07;;;;;;;7.05;4.47;;;;;;;9.50;93.38;100660.78;8387739;28;20042;-52
2022/12/19 17:18:19;;;;;;;4.85;3.80;;;;;;;9.69;92.52;100684.34;8387937;28;20138;-50
2022/12/19 17:22:20;;;;;;;4.75;3.05;;;;;;;9.76;92.54;100696.34;8364439;28;20053;-48
2022/12/19 17:26:20;;;;;;;5.25;2.90;;;;;;;10.36;90.01;100695.59;8351138;28;20044;-52
2022/12/19 17:30:21;;;;;;;5.72;2.55;;;;;;;10.90;87.32;100702.38;8351709;28;20029;-49
2022/12/19 17:34:31;;;;;;;2.50;2.20;;;;;;;11.21;85.00;100690.47;8367037;28;20047;-52
2022/12/19 17:38:32;;;;;;;4.65;2.38;;;;;;;11.18;85.50;100695.28;8384585;28;20055;-53
2022/12/19 17:42:34;;;;;;;5.97;3.15;;;;;;;11.07;86.21;100685.44;8386085;28;20119;-49
2022/12/19 17:46:35;;;;;;;5.13;3.25;;;;;;;11.10;86.08;100687.03;8387562;28;20513;-51
2022/12/19 17:50:39;;;;;;;8.13;4.07;;;;;;;11.16;86.46;100691.88;8386869;28;20048;-50
2022/12/19 17:54:40;;;;;;;5.72;3.63;;;;;;;11.27;86.29;100683.63;8366053;28;20510;-49
2022/12/19 17:58:41;;;;;;;5.82;3.80;;;;;;;11.20;86.68;100687.91;8354088;28;20131;-49
2022/12/19 18:02:43;;;;;;;3.90;2.70;;;;;;;10.85;88.26;100682.97;8335724;28;20068;-49
2022/12/19 18:06:44;;;;;;;6.07;2.35;;;;;;;10.57;90.20;100682.88;8347395;28;20075;-49
2022/12/19 18:10:45;;;;;;;4.70;2.58;;;;;;;10.40;91.44;100672.72;8353562;28;20041;-49
2022/12/19 18:14:46;;;;;;;6.20;2.45;;;;;;;10.07;93.31;100673.84;8354822;28;20071;-51
2022/12/19 18:18:46;;;;;;;5.65;3.38;;;;;;;10.46;93.02;100670.31;8353434;28;20352;-49
2022/12/19 18:22:47;;;;;;;3.38;2.17;;;;;;;10.80;91.01;100669.00;8353543;28;20037;-50
2022/12/19 18:26:47;;;;;;;6.25;2.83;;;;;;;11.10;90.31;100668.94;8352423;28;20033;-51
2022/12/19 18:30:49;;;;;;;3.67;2.50;;;;;;;11.43;88.37;100684.78;8336395;28;20517;-52
2022/12/19 18:34:50;;;;;;;2.85;1.80;;;;;;;11.45;88.24;100679.22;8352411;28;20041;-53
2022/12/19 18:38:51;;;;;;;3.80;2.25;;;;;;;11.62;86.75;100678.56;8352832;28;20037;-50
2022/12/19 18:42:51;;;;;;;4.18;2.42;;;;;;;11.39;87.65;100688.78;8350896;28;20041;-51
2022/12/19 18:46:52;;;;;;;4.53;2.72;;;;;;;11.12;89.52;100691.31;8349831;28;20509;-50
2022/12/19 18:50:55;;;;;;;8.27;4.15;;;;;;;11.15;89.51;100701.84;8351830;28;20037;-50
2022/12/19 18:54:55;;;;;;;7.80;2.97;;;;;;;11.34;89.83;100696.44;8351394;28;20414;-53
2022/12/19 18:58:57;;;;;;;5.53;2.83;;;;;;;11.45;89.16;100695.47;8346038;28;20049;-49
2022/12/19 19:03:01;;;;;;;4.85;3.38;;;;;;;11.07;90.72;100698.97;8347371;28;20075;-50
2022/12/19 19:07:01;;;;;;;10.43;6.27;;;;;;;10.84;92.37;100713.72;8349150;28;20037;-53
2022/12/19 19:11:02;;;;;;;9.90;4.20;;;;;;;10.67;92.88;100716.25;8349664;28;20037;-50
2022/12/19 19:15:03;;;;;;;4.55;3.53;;;;;;;10.58;94.16;100717.06;8327367;28;20587;-50
2022/12/19 19:19:06;;;;;;;6.90;4.30;;;;;;;11.29;91.13;100714.94;8337876;28;20475;-53